Columbia, Connecticut
Current Conditions -  °F | °C
As of 12:52 AM on Thursday 23 Oct 2014 (Local Time) from KIJD Reporting Station
Light Rain Light Rain  
Wind Chill: 10°   Ceiling: 1900
Heat Index: 10°   Visibility: 10mi
Dew Point:   Wind: 20mph
Humidity: 83%   Direction: 20°NNE
Pressure: 29.75"   Gusts: 28mph
Location:  41.7°N, 72.3°W
Report Text: KIJD 230452Z AUTO 02017G24KT 10SM -RA BKN019 OVC049 10/07 A2975 RMK AO2 PK WND 02029/0427 SLP074 P0000 T01000072 401390100
Loading
Personal Weather Stations






























Interactive Weather Map
Tropical Storm Tracking
New forecast layout! Learn more

10-Day Weather Forecast

Advertisements
Track Severe Weather on mobile